createdAt,value
2022-08-31T00:00:33.298Z,18.30
2022-08-31T00:03:19.070Z,18.20
2022-08-31T00:05:47.272Z,18.20
2022-08-31T00:08:15.738Z,18.20
2022-08-31T00:10:46.513Z,18.20
2022-08-31T00:13:15.679Z,18.20
2022-08-31T00:15:47.321Z,18.20
2022-08-31T00:18:16.092Z,18.10
2022-08-31T00:20:44.952Z,18.10
2022-08-31T00:23:15.673Z,18.10
2022-08-31T00:25:46.391Z,18.10
2022-08-31T00:28:16.607Z,18.00
2022-08-31T00:30:45.063Z,18.00
2022-08-31T00:33:14.503Z,18.00
2022-08-31T00:35:43.883Z,17.90
2022-08-31T00:38:14.318Z,17.90
2022-08-31T00:40:46.300Z,17.80
2022-08-31T00:43:31.653Z,17.80
2022-08-31T00:45:59.737Z,17.80
2022-08-31T00:48:29.237Z,17.70
2022-08-31T00:50:57.846Z,17.70
2022-08-31T00:53:26.455Z,17.70
2022-08-31T00:55:54.616Z,17.70
2022-08-31T00:58:23.573Z,17.60
2022-08-31T01:00:52.244Z,17.60
2022-08-31T01:03:21.595Z,17.50
2022-08-31T01:05:51.811Z,17.50
2022-08-31T01:08:27.031Z,17.50
2022-08-31T01:10:59.738Z,17.50
2022-08-31T01:13:27.992Z,17.50
2022-08-31T01:16:04.602Z,17.40
2022-08-31T01:18:34.843Z,17.40
2022-08-31T01:21:13.877Z,17.50
2022-08-31T01:23:45.299Z,17.50
2022-08-31T01:26:16.783Z,17.40
2022-08-31T01:28:45.326Z,17.40
2022-08-31T01:31:21.769Z,17.40
2022-08-31T01:33:50.116Z,17.30
2022-08-31T01:36:19.159Z,17.30
2022-08-31T01:38:53.218Z,17.30
2022-08-31T01:41:21.696Z,17.30
2022-08-31T01:43:49.817Z,17.30
2022-08-31T01:46:18.028Z,17.20
2022-08-31T01:48:47.644Z,17.20
2022-08-31T01:51:18.204Z,17.20
2022-08-31T01:53:51.229Z,17.10
2022-08-31T01:56:21.828Z,17.10
2022-08-31T01:58:49.998Z,17.10
2022-08-31T02:01:33.812Z,17.10
2022-08-31T02:04:04.897Z,17.00
2022-08-31T02:06:34.169Z,17.00
2022-08-31T02:09:06.128Z,17.00
2022-08-31T02:11:34.278Z,17.00
2022-08-31T02:14:02.301Z,17.00
2022-08-31T02:16:30.443Z,17.00
2022-08-31T02:18:58.693Z,17.00
2022-08-31T02:21:26.946Z,17.00
2022-08-31T02:23:55.209Z,17.00
2022-08-31T02:26:26.037Z,17.00
2022-08-31T02:28:54.090Z,17.00
2022-08-31T02:31:22.841Z,16.90
2022-08-31T02:33:50.902Z,16.90
2022-08-31T02:36:18.930Z,16.90
2022-08-31T02:38:47.897Z,16.80
2022-08-31T02:41:17.596Z,16.90
2022-08-31T02:43:47.113Z,16.90
2022-08-31T02:46:15.211Z,16.90
2022-08-31T02:48:43.279Z,16.80
2022-08-31T02:51:11.678Z,16.80
2022-08-31T02:53:40.213Z,16.80
2022-08-31T02:56:09.095Z,16.90
2022-08-31T02:58:37.521Z,16.90
2022-08-31T03:01:07.161Z,16.90
2022-08-31T03:03:35.809Z,16.80
2022-08-31T03:06:04.606Z,16.80
2022-08-31T03:08:32.615Z,16.80
2022-08-31T03:11:01.359Z,16.80
2022-08-31T03:13:29.896Z,16.80
2022-08-31T03:15:58.159Z,16.80
2022-08-31T03:18:27.582Z,16.80
2022-08-31T03:20:55.573Z,16.80
2022-08-31T03:23:23.612Z,16.70
2022-08-31T03:25:51.793Z,16.80
2022-08-31T03:28:19.837Z,16.80
2022-08-31T03:30:48.009Z,16.70
2022-08-31T03:33:16.144Z,16.70
2022-08-31T03:35:46.088Z,16.70
2022-08-31T03:38:15.964Z,16.70
2022-08-31T05:46:31.479Z,21.60
2022-08-31T05:48:59.572Z,21.40
2022-08-31T05:51:27.613Z,21.50
2022-08-31T05:57:55.207Z,22.10
2022-08-31T06:00:24.782Z,22.60
2022-08-31T06:02:55.180Z,22.80
2022-08-31T06:05:23.510Z,23.10
2022-08-31T06:07:51.632Z,23.50
2022-08-31T06:10:20.873Z,24.00
2022-08-31T06:12:48.909Z,24.00
2022-08-31T06:15:17.669Z,24.50
2022-08-31T06:17:45.880Z,24.20
2022-08-31T06:20:17.999Z,24.70
2022-08-31T06:22:46.595Z,25.10
2022-08-31T06:25:19.233Z,25.70
2022-08-31T06:27:49.129Z,26.00
2022-08-31T06:30:19.219Z,26.40
2022-08-31T06:32:47.866Z,26.70
2022-08-31T06:35:17.457Z,26.60
2022-08-31T06:37:45.535Z,26.70
2022-08-31T06:40:13.597Z,26.90
2022-08-31T06:42:41.636Z,27.00
2022-08-31T06:45:10.666Z,27.00
2022-08-31T06:47:38.717Z,27.10
2022-08-31T06:50:07.571Z,26.60
2022-08-31T06:52:39.106Z,26.20
2022-08-31T06:55:08.233Z,25.90
2022-08-31T06:57:36.384Z,25.80
2022-08-31T07:00:05.863Z,25.60
2022-08-31T07:02:34.375Z,25.50
2022-08-31T07:05:02.516Z,25.30
2022-08-31T07:07:32.526Z,25.40
2022-08-31T07:10:01.938Z,25.10
2022-08-31T07:12:30.775Z,25.20
2022-08-31T07:14:58.779Z,24.90
2022-08-31T07:17:26.826Z,24.80
2022-08-31T07:19:54.989Z,24.60
2022-08-31T07:22:23.037Z,24.40
2022-08-31T07:24:51.072Z,24.30
2022-08-31T07:27:20.509Z,24.30
2022-08-31T07:29:48.645Z,24.70
2022-08-31T07:32:17.443Z,24.70
2022-08-31T07:34:45.608Z,24.80
2022-08-31T07:37:31.093Z,24.80
2022-08-31T07:40:16.931Z,25.10
2022-08-31T07:42:46.994Z,25.50
2022-08-31T07:45:23.137Z,25.20
2022-08-31T07:47:51.666Z,25.00
2022-08-31T07:50:20.857Z,25.10
2022-08-31T07:52:51.789Z,24.80
2022-08-31T07:55:22.129Z,24.50
2022-08-31T07:57:53.487Z,24.40
2022-08-31T08:00:25.140Z,24.40
2022-08-31T08:02:54.042Z,24.20
2022-08-31T08:05:27.627Z,24.10
2022-08-31T08:08:00.207Z,24.30
2022-08-31T08:10:30.059Z,24.00
2022-08-31T08:13:05.388Z,24.30
2022-08-31T08:15:36.172Z,24.60
2022-08-31T08:18:05.363Z,24.70
2022-08-31T08:20:37.456Z,25.00
2022-08-31T08:23:11.583Z,25.40
2022-08-31T08:25:43.150Z,25.60
2022-08-31T08:28:38.113Z,25.70
2022-08-31T08:31:06.567Z,25.60
2022-08-31T08:33:36.576Z,25.70
2022-08-31T08:36:08.283Z,25.70
2022-08-31T08:38:39.302Z,25.50
2022-08-31T08:41:13.719Z,25.30
2022-08-31T08:43:47.993Z,25.20
2022-08-31T08:47:38.524Z,25.00
2022-08-31T08:49:22.153Z,24.60
2022-08-31T08:51:56.126Z,24.70
2022-08-31T08:54:34.293Z,24.80
2022-08-31T08:57:08.662Z,24.70
2022-08-31T08:59:38.088Z,24.60
2022-08-31T09:02:11.109Z,24.70
2022-08-31T09:04:50.490Z,24.60
2022-08-31T09:07:37.928Z,24.40
2022-08-31T09:10:14.457Z,24.50
2022-08-31T09:12:51.659Z,24.50
2022-08-31T09:15:36.566Z,24.40
2022-08-31T09:18:14.704Z,24.60
2022-08-31T09:20:42.865Z,24.50
2022-08-31T09:23:14.208Z,24.60
2022-08-31T09:25:52.425Z,24.80
2022-08-31T09:28:35.907Z,24.70
2022-08-31T09:31:05.904Z,24.70
2022-08-31T09:33:36.358Z,24.70
2022-08-31T09:36:18.825Z,24.70
2022-08-31T09:38:47.910Z,24.90
2022-08-31T09:41:30.583Z,24.90
2022-08-31T09:44:26.116Z,24.90
2022-08-31T09:47:00.583Z,25.00
2022-08-31T09:49:30.348Z,24.70
2022-08-31T09:52:21.293Z,24.80
2022-08-31T09:55:15.039Z,24.80
2022-08-31T09:57:46.342Z,24.60
2022-08-31T10:00:16.881Z,24.60
2022-08-31T10:02:50.070Z,24.60
2022-08-31T10:05:32.900Z,24.40
2022-08-31T10:08:07.428Z,24.50
2022-08-31T10:10:38.750Z,24.40
2022-08-31T10:13:14.055Z,24.70
2022-08-31T10:15:48.648Z,24.60
2022-08-31T10:18:25.198Z,24.70
2022-08-31T10:20:59.572Z,24.70
2022-08-31T10:23:34.748Z,25.00
2022-08-31T10:26:07.806Z,25.10
2022-08-31T10:28:41.516Z,25.10
2022-08-31T10:31:21.137Z,25.20
2022-08-31T10:34:15.551Z,25.10
2022-08-31T10:36:44.526Z,24.90
2022-08-31T10:39:25.786Z,24.80
2022-08-31T10:41:53.833Z,24.70
2022-08-31T10:44:32.577Z,24.90
2022-08-31T10:47:05.690Z,25.00
2022-08-31T10:49:39.134Z,24.90
2022-08-31T10:52:18.182Z,25.10
2022-08-31T10:54:54.493Z,24.80
2022-08-31T10:57:32.210Z,25.00
2022-08-31T11:00:07.490Z,25.20
2022-08-31T11:02:55.381Z,25.20
2022-08-31T11:05:35.191Z,25.30
2022-08-31T11:08:29.714Z,25.20
2022-08-31T11:10:59.305Z,25.10
2022-08-31T11:14:01.650Z,25.20
2022-08-31T11:16:56.646Z,25.30
2022-08-31T11:19:58.309Z,25.60
2022-08-31T11:22:52.229Z,25.90
2022-08-31T11:25:58.975Z,26.30
2022-08-31T11:28:35.287Z,26.20
2022-08-31T11:31:07.604Z,25.90
2022-08-31T11:33:37.451Z,25.90
2022-08-31T11:36:08.861Z,26.10
2022-08-31T11:39:12.797Z,26.20
2022-08-31T11:41:46.675Z,26.20
2022-08-31T11:44:46.687Z,26.30
2022-08-31T11:47:35.719Z,26.10
2022-08-31T11:50:11.346Z,26.10
2022-08-31T11:52:45.129Z,25.80
2022-08-31T11:55:27.107Z,25.90
2022-08-31T11:58:32.680Z,26.30
2022-08-31T12:01:09.513Z,26.20
2022-08-31T12:03:50.857Z,26.30
2022-08-31T12:07:07.669Z,26.20
2022-08-31T12:09:52.095Z,26.20
2022-08-31T12:12:30.783Z,26.20
2022-08-31T12:15:08.405Z,26.50
2022-08-31T12:17:48.454Z,26.80
2022-08-31T12:20:25.269Z,26.50
2022-08-31T12:23:37.670Z,26.20
2022-08-31T12:26:31.474Z,26.10
2022-08-31T12:29:18.182Z,26.00
2022-08-31T12:32:08.734Z,26.00
2022-08-31T12:34:41.841Z,25.90
2022-08-31T12:37:22.299Z,25.90
2022-08-31T12:39:50.636Z,25.80
2022-08-31T12:42:19.679Z,25.80
2022-08-31T12:44:52.799Z,25.80
2022-08-31T12:47:29.751Z,25.70
2022-08-31T12:50:09.063Z,25.70
2022-08-31T12:52:52.581Z,25.60
2022-08-31T12:55:28.856Z,25.60
2022-08-31T12:58:13.275Z,25.50
2022-08-31T13:00:46.013Z,25.60
2022-08-31T13:03:22.408Z,25.50
2022-08-31T13:06:08.404Z,25.40
2022-08-31T13:08:40.219Z,25.40
2022-08-31T13:11:16.885Z,25.50
2022-08-31T13:13:51.185Z,25.50
2022-08-31T13:16:19.753Z,25.40
2022-08-31T13:18:52.070Z,25.40
2022-08-31T13:21:23.481Z,25.40
2022-08-31T13:23:51.595Z,25.60
2022-08-31T13:26:23.084Z,25.60
2022-08-31T13:28:53.825Z,25.70
2022-08-31T13:31:25.144Z,25.70
2022-08-31T13:33:56.858Z,25.70
2022-08-31T13:36:32.838Z,25.50
2022-08-31T13:39:03.677Z,25.50
2022-08-31T13:41:35.902Z,25.50
2022-08-31T13:44:08.941Z,25.30
2022-08-31T13:46:44.562Z,25.10
2022-08-31T13:49:35.253Z,25.10
2022-08-31T13:52:04.793Z,25.00
2022-08-31T13:54:34.630Z,25.00
2022-08-31T13:57:28.381Z,25.10
2022-08-31T14:00:25.436Z,25.00
2022-08-31T14:02:54.041Z,24.90
2022-08-31T14:05:32.866Z,24.90
2022-08-31T14:08:03.978Z,24.70
2022-08-31T14:10:37.786Z,24.70
2022-08-31T14:13:18.248Z,24.60
2022-08-31T14:15:52.376Z,24.50
2022-08-31T14:18:36.545Z,24.50
2022-08-31T14:21:23.076Z,24.40
2022-08-31T14:23:54.374Z,24.30
2022-08-31T14:26:26.343Z,24.30
2022-08-31T14:28:56.144Z,24.20
2022-08-31T14:31:27.617Z,24.20
2022-08-31T14:34:20.256Z,24.10
2022-08-31T14:36:53.790Z,24.00
2022-08-31T14:39:24.764Z,24.00
2022-08-31T14:41:54.651Z,23.90
2022-08-31T14:44:25.710Z,23.80
2022-08-31T14:46:54.054Z,23.80
2022-08-31T14:49:23.086Z,23.80
2022-08-31T14:51:59.917Z,23.90
2022-08-31T14:54:34.689Z,23.80
2022-08-31T14:57:04.923Z,23.80
2022-08-31T14:59:35.715Z,23.70
2022-08-31T15:02:03.840Z,23.60
2022-08-31T15:04:33.578Z,23.50
2022-08-31T15:07:09.739Z,23.50
2022-08-31T15:09:41.357Z,23.40
2022-08-31T15:12:11.811Z,23.30
2022-08-31T15:14:44.707Z,23.30
2022-08-31T15:17:19.844Z,23.30
2022-08-31T15:19:55.108Z,23.30
2022-08-31T15:22:26.204Z,23.20
2022-08-31T15:24:55.233Z,23.20
2022-08-31T15:27:25.450Z,23.10
2022-08-31T15:29:56.080Z,23.20
2022-08-31T15:32:25.244Z,23.20
2022-08-31T15:34:58.126Z,23.20
2022-08-31T15:37:30.833Z,23.10
2022-08-31T15:40:03.757Z,23.10
2022-08-31T15:42:39.465Z,23.10
2022-08-31T15:45:08.717Z,23.00
2022-08-31T15:47:58.262Z,23.00
2022-08-31T15:50:31.849Z,23.00
2022-08-31T15:53:08.951Z,22.80
2022-08-31T15:55:40.457Z,22.80
2022-08-31T15:58:12.562Z,22.80
2022-08-31T16:00:42.105Z,22.80
2022-08-31T16:03:10.971Z,22.80
2022-08-31T16:05:39.921Z,22.80
2022-08-31T16:08:11.102Z,22.70
2022-08-31T16:10:42.849Z,22.70
2022-08-31T16:13:10.979Z,22.60
2022-08-31T16:15:39.668Z,22.50
2022-08-31T16:18:08.867Z,22.50
2022-08-31T16:20:39.075Z,22.50
2022-08-31T16:23:07.525Z,22.50
2022-08-31T16:25:48.404Z,22.40
2022-08-31T16:28:17.302Z,22.30
2022-08-31T16:30:45.469Z,22.30
2022-08-31T16:33:13.542Z,22.30
2022-08-31T16:35:41.597Z,22.30
2022-08-31T16:38:09.617Z,22.20
2022-08-31T16:40:39.099Z,22.10
2022-08-31T16:43:07.171Z,22.00
2022-08-31T16:45:35.230Z,22.00
2022-08-31T16:48:21.089Z,22.00
2022-08-31T16:50:49.753Z,21.90
2022-08-31T16:53:18.438Z,21.80
2022-08-31T16:55:48.384Z,21.80
2022-08-31T16:58:29.801Z,21.80
2022-08-31T17:01:08.873Z,21.70
2022-08-31T17:03:36.941Z,21.70
2022-08-31T17:06:05.207Z,21.60
2022-08-31T17:08:37.162Z,21.60
2022-08-31T17:11:16.053Z,21.50
2022-08-31T17:13:47.265Z,21.40
2022-08-31T17:16:21.163Z,21.40
2022-08-31T17:18:51.566Z,21.40
2022-08-31T17:21:21.543Z,21.30
2022-08-31T17:23:54.526Z,21.20
2022-08-31T17:26:25.573Z,21.20
2022-08-31T17:29:01.793Z,21.20
2022-08-31T17:31:32.464Z,21.10
2022-08-31T17:34:01.079Z,21.00
2022-08-31T17:36:37.213Z,21.10
2022-08-31T17:39:06.480Z,20.90
2022-08-31T17:41:37.006Z,20.80
2022-08-31T17:44:05.412Z,20.70
2022-08-31T17:46:33.813Z,20.60
2022-08-31T17:49:02.215Z,20.60
2022-08-31T17:51:34.402Z,20.50
2022-08-31T17:54:05.484Z,20.40
2022-08-31T17:56:44.227Z,20.40
2022-08-31T17:59:18.066Z,20.30
2022-08-31T18:01:48.750Z,20.30
2022-08-31T18:04:17.811Z,20.20
2022-08-31T18:06:46.487Z,20.20
2022-08-31T18:09:16.031Z,20.10
2022-08-31T18:11:46.213Z,20.00
2022-08-31T18:14:15.225Z,20.00
2022-08-31T18:16:43.708Z,19.90
2022-08-31T18:19:12.222Z,19.80
2022-08-31T18:21:40.529Z,19.80
2022-08-31T18:24:09.195Z,19.80
2022-08-31T18:26:48.062Z,19.70
2022-08-31T18:29:19.589Z,19.70
2022-08-31T18:31:52.838Z,19.60
2022-08-31T18:34:23.000Z,19.60
2022-08-31T18:36:53.230Z,19.60
2022-08-31T18:39:41.072Z,19.50
2022-08-31T18:42:32.330Z,19.40
2022-08-31T18:45:19.816Z,19.30
2022-08-31T18:48:20.828Z,19.30
2022-08-31T18:50:46.337Z,19.20
2022-08-31T18:53:29.277Z,19.20
2022-08-31T18:56:00.235Z,19.10
2022-08-31T18:58:30.000Z,19.10
2022-08-31T19:00:59.001Z,19.10
2022-08-31T19:03:28.447Z,19.00
2022-08-31T19:05:57.499Z,19.00
2022-08-31T19:08:26.345Z,18.90
2022-08-31T19:10:58.123Z,18.80
2022-08-31T19:13:31.173Z,18.80
2022-08-31T19:16:08.117Z,18.80
2022-08-31T19:18:43.969Z,18.70
2022-08-31T19:21:18.025Z,18.70
2022-08-31T19:23:46.514Z,18.60
2022-08-31T19:26:20.520Z,18.60
2022-08-31T19:28:50.220Z,18.60
2022-08-31T19:31:21.794Z,18.60
2022-08-31T19:33:56.399Z,18.60
2022-08-31T19:36:25.051Z,18.60
2022-08-31T19:38:54.163Z,18.50
2022-08-31T19:41:25.204Z,18.50
2022-08-31T19:44:03.038Z,18.50
2022-08-31T19:46:35.014Z,18.50
2022-08-31T19:49:03.508Z,18.40
2022-08-31T19:51:32.234Z,18.40
2022-08-31T19:54:03.275Z,18.30
2022-08-31T19:56:31.526Z,18.30
2022-08-31T19:59:00.510Z,18.30
2022-08-31T20:01:33.633Z,18.30
2022-08-31T20:04:14.436Z,18.30
2022-08-31T20:06:45.249Z,18.20
2022-08-31T20:09:15.580Z,18.20
2022-08-31T20:11:47.436Z,18.10
2022-08-31T20:14:16.104Z,18.20
2022-08-31T20:16:45.145Z,18.10
2022-08-31T20:19:18.751Z,18.10
2022-08-31T20:21:52.831Z,18.10
2022-08-31T20:24:22.326Z,18.00
2022-08-31T20:26:52.309Z,17.90
2022-08-31T20:29:21.654Z,18.00
2022-08-31T20:31:51.950Z,18.00
2022-08-31T20:34:23.530Z,17.90
2022-08-31T20:36:58.548Z,17.90
2022-08-31T20:39:35.240Z,17.80
2022-08-31T20:42:03.590Z,17.90
2022-08-31T20:44:33.635Z,17.90
2022-08-31T20:47:21.289Z,17.80
2022-08-31T20:49:54.792Z,17.80
2022-08-31T20:52:27.132Z,17.80
2022-08-31T20:55:01.325Z,17.70
2022-08-31T20:57:31.715Z,17.70
2022-08-31T21:00:04.667Z,17.70
2022-08-31T21:02:34.251Z,17.70
2022-08-31T21:05:36.640Z,17.60
2022-08-31T21:07:57.494Z,17.60
2022-08-31T21:10:36.780Z,17.60
2022-08-31T21:13:10.970Z,17.60
2022-08-31T21:15:50.990Z,17.60
2022-08-31T21:18:19.215Z,17.50
2022-08-31T21:20:51.489Z,17.50
2022-08-31T21:23:19.774Z,17.50
2022-08-31T21:25:48.108Z,17.40
2022-08-31T21:28:18.368Z,17.40
2022-08-31T21:30:49.115Z,17.40
2022-08-31T21:33:17.731Z,17.40
2022-08-31T21:35:46.242Z,17.40
2022-08-31T21:38:15.667Z,17.40
2022-08-31T21:40:50.077Z,17.40
2022-08-31T21:43:18.523Z,17.40
2022-08-31T21:45:46.756Z,17.30
2022-08-31T21:48:14.752Z,17.30
2022-08-31T21:50:42.808Z,17.30
2022-08-31T21:53:11.776Z,17.30
2022-08-31T21:55:41.241Z,17.30
2022-08-31T21:58:09.517Z,17.30
2022-08-31T22:00:41.766Z,17.20
2022-08-31T22:03:11.184Z,17.20
2022-08-31T22:05:41.546Z,17.20
2022-08-31T22:08:09.834Z,17.20
2022-08-31T22:10:42.461Z,17.20
2022-08-31T22:13:12.607Z,17.10
2022-08-31T22:15:41.124Z,17.10
2022-08-31T22:20:58.931Z,17.10
2022-08-31T22:24:10.667Z,17.00
2022-08-31T22:26:45.674Z,17.00
2022-08-31T22:29:17.263Z,16.90
2022-08-31T22:31:45.328Z,16.90
2022-08-31T22:34:13.830Z,16.90
2022-08-31T22:36:41.968Z,16.90
2022-08-31T22:39:14.267Z,16.90
2022-08-31T22:41:44.698Z,16.80
2022-08-31T22:44:14.309Z,16.80
2022-08-31T22:46:42.498Z,16.80
2022-08-31T22:49:10.998Z,16.80
2022-08-31T22:51:41.638Z,16.80
2022-08-31T22:54:11.195Z,16.70
2022-08-31T22:56:40.353Z,16.70
2022-08-31T22:59:12.891Z,16.70
2022-08-31T23:01:43.473Z,16.70
2022-08-31T23:04:14.523Z,16.60
2022-08-31T23:06:42.737Z,16.60
2022-08-31T23:09:11.940Z,16.60
2022-08-31T23:11:41.029Z,16.60
2022-08-31T23:14:10.726Z,16.60
2022-08-31T23:16:40.963Z,16.60
2022-08-31T23:19:12.227Z,16.50
2022-08-31T23:21:44.949Z,16.50
2022-08-31T23:24:13.856Z,16.50
2022-08-31T23:26:41.943Z,16.50
2022-08-31T23:29:12.226Z,16.50
2022-08-31T23:31:41.388Z,16.40
2022-08-31T23:34:13.057Z,16.40
2022-08-31T23:36:44.021Z,16.40
2022-08-31T23:39:12.031Z,16.30
2022-08-31T23:41:40.107Z,16.40
2022-08-31T23:44:09.943Z,16.30
2022-08-31T23:46:41.087Z,16.30
2022-08-31T23:49:12.258Z,16.30
2022-08-31T23:51:40.947Z,16.20
2022-08-31T23:54:10.574Z,16.20
2022-08-31T23:56:41.855Z,16.20
2022-08-31T23:59:17.228Z,16.20
